Time;durP1;ratioP1;P1;durP2;ratioP2;P2;SDS_P1;SDS_P2;PMS_P1;PMS_P2;Temp;Humidity;BMP_temperature;BMP_pressure;BME280_temperature;BME280_humidity;BME280_pressure;Samples;Min_cycle;Max_cycle;Signal;HPM_P1;HPM_P2
2022/08/14 00:00:48;;;;;;;4.65;3.00;;;23.30;99.90;;;;;;5079705;28;20048;-69
2022/08/14 00:03:19;;;;;;;5.63;2.53;;;23.20;99.60;;;;;;5081989;28;20051;-72
2022/08/14 00:05:46;;;;;;;2.90;1.80;;;23.20;99.30;;;;;;5070846;28;20052;-70
2022/08/14 00:08:14;;;;;;;3.55;2.35;;;23.20;98.80;;;;;;5089581;28;20051;-71
2022/08/14 00:10:42;;;;;;;3.78;1.90;;;23.10;98.50;;;;;;5024222;28;20057;-71
2022/08/14 00:13:11;;;;;;;3.10;2.05;;;23.10;98.20;;;;;;5068157;28;20053;-70
2022/08/14 00:15:43;;;;;;;5.30;1.90;;;23.10;98.00;;;;;;5036608;28;20079;-69
2022/08/14 00:18:14;;;;;;;4.05;2.00;;;23.00;97.80;;;;;;5050200;28;20044;-72
2022/08/14 00:20:42;;;;;;;2.42;1.50;;;23.00;97.80;;;;;;5051377;28;20045;-69
2022/08/14 00:23:12;;;;;;;3.08;2.03;;;23.10;98.00;;;;;;5069914;28;20102;-71
2022/08/14 00:25:41;;;;;;;2.75;2.00;;;23.10;98.00;;;;;;5069686;28;20491;-70
2022/08/14 00:28:11;;;;;;;3.38;1.55;;;23.10;98.10;;;;;;5053513;28;20095;-72
2022/08/14 00:30:39;;;;;;;3.05;2.00;;;23.10;98.30;;;;;;5055547;28;20048;-70
2022/08/14 00:33:07;;;;;;;2.65;1.65;;;23.10;98.40;;;;;;5083468;28;20040;-71
2022/08/14 00:35:34;;;;;;;2.58;1.70;;;23.10;98.40;;;;;;5083781;28;20455;-69
2022/08/14 00:38:02;;;;;;;4.20;2.88;;;23.10;98.60;;;;;;5066888;28;20503;-71
2022/08/14 00:40:29;;;;;;;3.63;2.35;;;23.00;98.70;;;;;;5079959;28;20040;-69
2022/08/14 00:42:57;;;;;;;3.03;1.90;;;23.10;98.90;;;;;;5086399;28;20044;-70
2022/08/14 00:45:26;;;;;;;3.38;2.00;;;23.00;98.80;;;;;;5039412;28;20041;-71
2022/08/14 00:47:53;;;;;;;5.07;2.00;;;23.00;98.80;;;;;;5049994;28;20053;-69
2022/08/14 00:50:22;;;;;;;3.63;2.00;;;23.10;98.90;;;;;;5096431;28;20048;-71
2022/08/14 00:52:51;;;;;;;3.92;2.25;;;23.10;99.00;;;;;;5053927;28;20100;-70
2022/08/14 00:55:20;;;;;;;3.17;1.73;;;23.10;99.00;;;;;;5055871;28;20102;-71
2022/08/14 01:00:35;;;;;;;;;;;23.10;99.20;;;;;;5051654;28;20491;-70
2022/08/14 01:03:04;;;;;;;2.92;2.03;;;23.10;99.30;;;;;;5051054;28;20425;-71
2022/08/14 01:05:33;;;;;;;3.55;2.22;;;23.10;99.20;;;;;;5066038;28;20047;-73
2022/08/14 01:08:01;;;;;;;4.18;2.00;;;23.10;99.30;;;;;;5050075;28;20400;-69
2022/08/14 01:13:28;;;;;;;2.88;2.42;;;23.10;99.40;;;;;;5066404;28;20094;-70
2022/08/14 01:15:58;;;;;;;4.35;1.85;;;23.10;99.30;;;;;;5041026;28;20143;-70
2022/08/14 01:21:16;;;;;;;4.00;2.25;;;23.10;99.30;;;;;;5065784;28;20057;-73
2022/08/14 01:23:47;;;;;;;3.65;2.00;;;23.10;99.60;;;;;;5049443;28;20132;-70
2022/08/14 01:26:19;;;;;;;4.13;2.20;;;23.10;99.40;;;;;;5065080;28;20143;-73
2022/08/14 01:28:54;;;;;;;4.90;2.20;;;23.10;99.50;;;;;;5065605;28;20057;-71
2022/08/14 01:31:25;;;;;;;4.87;2.60;;;23.10;99.60;;;;;;5065781;28;20048;-70
2022/08/14 01:33:55;;;;;;;3.75;2.33;;;23.00;99.60;;;;;;5050763;28;20380;-70
2022/08/14 01:36:25;;;;;;;3.60;2.20;;;23.00;99.90;;;;;;5049456;28;20048;-70
2022/08/14 01:38:57;;;;;;;6.70;2.22;;;22.90;99.90;;;;;;5066260;28;20075;-69
2022/08/14 01:41:26;;;;;;;3.80;2.25;;;22.90;99.90;;;;;;5050875;28;20075;-74
2022/08/14 01:43:59;;;;;;;3.97;2.45;;;22.90;99.90;;;;;;5068030;28;20135;-70
2022/08/14 01:46:32;;;;;;;4.35;2.47;;;22.90;99.90;;;;;;5068707;28;20052;-72
2022/08/14 01:49:01;;;;;;;3.83;2.30;;;22.90;99.90;;;;;;5050438;28;20098;-71
2022/08/14 01:51:28;;;;;;;3.60;2.22;;;22.90;99.90;;;;;;5049965;28;20059;-73
2022/08/14 01:54:04;;;;;;;4.28;2.35;;;22.80;99.90;;;;;;5083168;28;20056;-70
2022/08/14 01:56:36;;;;;;;3.80;2.08;;;22.80;99.90;;;;;;5065012;28;20049;-70
2022/08/14 01:59:30;;;;;;;5.95;2.95;;;22.80;99.90;;;;;;5050398;28;20048;-71
2022/08/14 02:02:02;;;;;;;5.53;2.35;;;22.80;99.90;;;;;;5057478;28;20486;-70
2022/08/14 02:04:33;;;;;;;3.83;2.42;;;22.80;99.90;;;;;;5068634;28;20044;-71
2022/08/14 02:07:01;;;;;;;4.32;2.67;;;22.80;99.90;;;;;;5068635;28;20045;-71
2022/08/14 02:09:34;;;;;;;4.80;2.92;;;22.80;99.90;;;;;;5052721;28;20044;-70
2022/08/14 02:12:03;;;;;;;3.28;2.17;;;22.80;99.90;;;;;;5084871;28;20770;-70
2022/08/14 02:14:32;;;;;;;8.48;2.85;;;22.80;99.90;;;;;;5070456;28;20061;-73
2022/08/14 02:17:00;;;;;;;4.03;2.30;;;22.90;99.90;;;;;;5085911;28;20056;-71
2022/08/14 02:19:30;;;;;;;5.28;3.13;;;22.80;99.90;;;;;;5068853;28;20080;-71
2022/08/14 02:21:59;;;;;;;3.88;2.47;;;22.80;99.90;;;;;;5069263;28;20076;-70
2022/08/14 02:24:29;;;;;;;5.05;2.85;;;22.80;99.90;;;;;;5069353;28;20040;-69
2022/08/14 02:26:58;;;;;;;4.72;2.58;;;22.80;99.90;;;;;;5052568;28;20730;-70
2022/08/14 02:29:29;;;;;;;4.07;2.60;;;22.80;99.90;;;;;;5069012;28;20109;-71
2022/08/14 02:31:59;;;;;;;5.45;2.55;;;22.80;99.90;;;;;;5069380;28;20045;-69
2022/08/14 02:34:29;;;;;;;4.57;2.95;;;22.70;99.90;;;;;;5069307;28;20041;-69
2022/08/14 02:37:04;;;;;;;4.40;2.65;;;22.80;99.90;;;;;;5070164;28;20059;-70
2022/08/14 02:39:35;;;;;;;4.65;3.00;;;22.70;99.90;;;;;;5069620;28;20155;-70
2022/08/14 02:42:04;;;;;;;3.80;2.72;;;22.70;99.90;;;;;;5070656;28;20086;-70
2022/08/14 02:44:33;;;;;;;7.63;2.72;;;22.70;99.90;;;;;;5052825;28;20060;-70
2022/08/14 02:47:01;;;;;;;6.03;2.92;;;22.70;99.90;;;;;;5068802;28;20049;-70
2022/08/14 02:49:29;;;;;;;6.20;3.22;;;22.70;99.90;;;;;;5069065;28;20099;-72
2022/08/14 02:51:57;;;;;;;6.03;3.08;;;22.70;99.90;;;;;;5069220;28;20076;-70
2022/08/14 02:54:25;;;;;;;3.47;2.60;;;22.60;99.90;;;;;;5069301;28;20074;-73
2022/08/14 02:56:55;;;;;;;4.63;2.60;;;22.60;99.90;;;;;;5069100;28;20430;-70
2022/08/14 02:59:30;;;;;;;4.20;2.67;;;22.60;99.90;;;;;;5103083;28;20789;-70
2022/08/14 03:01:58;;;;;;;3.55;2.35;;;22.60;99.90;;;;;;5058617;28;20053;-70
2022/08/14 03:04:27;;;;;;;4.57;3.25;;;22.60;99.90;;;;;;5048961;28;20045;-71
2022/08/14 03:06:55;;;;;;;6.03;2.97;;;22.50;99.90;;;;;;5075745;28;20518;-70
2022/08/14 03:09:22;;;;;;;4.53;2.70;;;22.60;99.90;;;;;;5052584;28;20394;-70
2022/08/14 03:11:51;;;;;;;4.68;2.90;;;22.60;99.90;;;;;;5069932;28;20048;-70
2022/08/14 03:14:20;;;;;;;4.47;2.65;;;22.60;99.90;;;;;;5068985;28;20049;-71
2022/08/14 03:16:49;;;;;;;4.22;3.05;;;22.50;99.90;;;;;;5102471;28;20044;-70
2022/08/14 03:19:17;;;;;;;5.18;3.08;;;22.50;99.90;;;;;;5069873;28;20040;-70
2022/08/14 03:21:45;;;;;;;4.93;2.92;;;22.50;99.90;;;;;;5068702;28;20123;-70
2022/08/14 03:24:13;;;;;;;3.55;2.60;;;22.50;99.90;;;;;;5052061;28;20056;-70
2022/08/14 03:26:43;;;;;;;4.18;3.10;;;22.50;99.90;;;;;;5085647;28;20513;-70
2022/08/14 03:29:14;;;;;;;8.70;2.53;;;22.50;99.90;;;;;;5069506;28;20165;-71
2022/08/14 03:31:42;;;;;;;4.57;2.70;;;22.50;99.90;;;;;;5070597;28;20040;-71
2022/08/14 03:34:10;;;;;;;3.83;2.42;;;22.40;99.90;;;;;;5055938;28;20179;-70
2022/08/14 03:36:39;;;;;;;6.10;2.95;;;22.40;99.90;;;;;;5055986;28;20067;-70
2022/08/14 03:39:08;;;;;;;4.60;2.90;;;22.40;99.90;;;;;;5055746;28;20048;-71
2022/08/14 03:41:37;;;;;;;4.38;3.05;;;22.40;99.90;;;;;;5055822;28;20079;-71
2022/08/14 03:44:05;;;;;;;4.63;3.25;;;22.40;99.90;;;;;;5106013;28;20124;-70
2022/08/14 03:46:35;;;;;;;3.60;2.53;;;22.40;99.90;;;;;;5105868;28;20397;-71
2022/08/14 03:49:04;;;;;;;4.60;2.72;;;22.40;99.90;;;;;;5071973;28;20520;-73
2022/08/14 03:51:34;;;;;;;6.70;2.85;;;22.40;99.90;;;;;;5072334;28;20047;-70
2022/08/14 03:54:04;;;;;;;7.63;3.63;;;22.40;99.90;;;;;;5055510;28;20045;-70
2022/08/14 03:56:32;;;;;;;3.42;2.30;;;22.40;99.90;;;;;;5105501;28;20076;-71
2022/08/14 03:59:08;;;;;;;5.25;3.30;;;22.40;99.90;;;;;;5055282;28;20048;-70
2022/08/14 04:01:38;;;;;;;4.20;2.75;;;22.40;99.90;;;;;;5070871;28;20033;-70
2022/08/14 04:04:07;;;;;;;5.82;3.17;;;22.40;99.90;;;;;;5105560;28;20058;-71
2022/08/14 04:06:36;;;;;;;4.90;2.90;;;22.40;99.90;;;;;;5072996;28;20051;-74
2022/08/14 04:09:06;;;;;;;4.28;2.80;;;22.40;99.90;;;;;;5071887;28;20105;-70
2022/08/14 04:11:35;;;;;;;5.20;2.63;;;22.40;99.90;;;;;;5055421;28;20056;-71
2022/08/14 04:14:04;;;;;;;5.57;3.70;;;22.40;99.90;;;;;;5071917;28;20395;-71
2022/08/14 04:16:32;;;;;;;5.00;2.58;;;22.40;99.90;;;;;;5071519;28;20102;-70
2022/08/14 04:19:03;;;;;;;6.47;2.88;;;22.40;99.90;;;;;;5071346;28;20060;-70
2022/08/14 04:21:31;;;;;;;6.57;3.05;;;22.40;99.90;;;;;;5071817;28;20054;-70
2022/08/14 04:24:00;;;;;;;6.38;3.33;;;22.40;99.90;;;;;;5088071;28;20072;-71
2022/08/14 04:26:29;;;;;;;4.18;2.90;;;22.40;99.90;;;;;;5072580;28;20441;-73
2022/08/14 04:28:58;;;;;;;6.25;4.03;;;22.40;99.90;;;;;;5072065;28;20063;-73
2022/08/14 04:31:26;;;;;;;6.22;3.42;;;22.40;99.90;;;;;;5104783;28;20052;-71
2022/08/14 04:33:54;;;;;;;4.95;3.33;;;22.40;99.90;;;;;;5054597;28;20048;-70
2022/08/14 04:36:21;;;;;;;5.55;3.00;;;22.40;99.90;;;;;;5071092;28;20445;-70
2022/08/14 04:44:21;;;;;;;3.45;2.72;;;22.50;99.90;;;;;;5072140;28;20040;-71
2022/08/14 04:49:35;;;;;;;5.35;3.42;;;22.60;99.90;;;;;;5072148;28;20045;-70
2022/08/14 04:52:03;;;;;;;5.65;2.97;;;22.80;99.90;;;;;;5104750;28;20059;-70
2022/08/14 04:54:31;;;;;;;6.15;3.20;;;22.90;99.90;;;;;;5069927;28;20097;-74
2022/08/14 04:56:58;;;;;;;4.20;2.90;;;23.00;99.90;;;;;;5104045;28;20040;-70
2022/08/14 04:59:26;;;;;;;3.97;2.88;;;23.20;99.90;;;;;;5071868;28;20048;-69
2022/08/14 05:01:53;;;;;;;3.90;3.38;;;23.30;99.90;;;;;;5054292;28;20139;-73
2022/08/14 05:04:23;;;;;;;5.18;2.92;;;23.50;99.90;;;;;;5086956;28;20399;-72
2022/08/14 05:06:53;;;;;;;8.55;3.70;;;23.60;99.90;;;;;;5071641;28;20131;-71
2022/08/14 05:09:22;;;;;;;3.88;2.65;;;23.70;99.90;;;;;;5071713;28;20041;-70
2022/08/14 05:11:51;;;;;;;6.75;2.92;;;23.90;99.90;;;;;;5070451;28;20123;-70
2022/08/14 05:14:21;;;;;;;4.47;2.88;;;24.10;99.90;;;;;;5087234;28;20070;-70
2022/08/14 05:16:48;;;;;;;5.70;2.50;;;24.30;99.90;;;;;;5103957;28;20127;-70
2022/08/14 05:19:16;;;;;;;5.43;2.92;;;24.40;99.90;;;;;;5086949;28;20052;-70
2022/08/14 05:21:45;;;;;;;4.95;3.17;;;24.60;99.70;;;;;;5086829;28;20149;-72
2022/08/14 05:24:13;;;;;;;4.00;3.22;;;24.80;99.50;;;;;;5070113;28;20053;-70
2022/08/14 05:26:43;;;;;;;9.23;3.08;;;25.00;99.20;;;;;;5071612;28;20509;-70
2022/08/14 05:29:10;;;;;;;4.30;2.42;;;25.10;99.00;;;;;;5069563;28;20087;-70
2022/08/14 05:31:40;;;;;;;3.95;2.63;;;25.10;98.60;;;;;;5086807;28;20147;-71
2022/08/14 05:34:09;;;;;;;4.68;2.40;;;25.30;98.50;;;;;;5103427;28;20044;-71
2022/08/14 05:36:37;;;;;;;6.15;3.50;;;25.40;98.00;;;;;;5069891;28;20093;-71
2022/08/14 05:39:05;;;;;;;4.32;2.72;;;25.60;97.70;;;;;;5069838;28;20044;-70
2022/08/14 05:41:33;;;;;;;5.55;3.53;;;25.70;97.50;;;;;;5070044;28;20040;-70
2022/08/14 05:44:01;;;;;;;5.55;2.58;;;25.80;97.30;;;;;;5085250;28;20071;-70
2022/08/14 05:46:28;;;;;;;3.85;2.42;;;25.90;97.20;;;;;;5069895;28;20098;-70
2022/08/14 05:48:58;;;;;;;5.97;2.85;;;26.00;96.90;;;;;;5069519;28;20044;-72
2022/08/14 05:51:27;;;;;;;3.95;2.55;;;26.10;96.60;;;;;;5070983;28;20048;-70
2022/08/14 05:53:55;;;;;;;4.68;2.40;;;26.20;96.40;;;;;;5070671;28;20047;-71
2022/08/14 05:56:24;;;;;;;6.32;2.45;;;26.30;96.40;;;;;;5070911;28;20045;-70
2022/08/14 05:58:53;;;;;;;6.65;3.05;;;26.30;96.20;;;;;;5103252;28;20041;-70
2022/08/14 06:01:21;;;;;;;3.95;2.25;;;26.50;95.90;;;;;;5069301;28;20501;-71
2022/08/14 06:03:48;;;;;;;27.08;3.22;;;26.60;95.70;;;;;;5070766;28;20047;-71
2022/08/14 06:06:18;;;;;;;6.22;2.78;;;26.60;95.70;;;;;;5086245;28;20102;-70
2022/08/14 06:08:45;;;;;;;4.72;2.13;;;26.70;95.60;;;;;;5102989;28;20102;-70
2022/08/14 06:11:13;;;;;;;3.22;2.00;;;26.80;95.40;;;;;;5069515;28;20055;-70
2022/08/14 06:13:42;;;;;;;6.50;3.03;;;27.00;95.50;;;;;;5070681;28;20144;-70
2022/08/14 06:16:10;;;;;;;4.72;3.17;;;27.00;95.30;;;;;;5069631;28;20076;-70
2022/08/14 06:18:38;;;;;;;4.35;2.88;;;27.10;95.20;;;;;;5085705;28;20048;-70
2022/08/14 06:21:06;;;;;;;4.85;2.75;;;27.20;94.90;;;;;;5086158;28;20380;-70
2022/08/14 06:23:34;;;;;;;5.38;2.55;;;27.30;94.90;;;;;;5052685;28;20055;-73
2022/08/14 06:26:01;;;;;;;3.80;2.63;;;27.40;95.00;;;;;;5086128;28;20040;-70
2022/08/14 06:28:29;;;;;;;5.38;2.55;;;27.50;94.70;;;;;;5068746;28;20065;-70
2022/08/14 06:30:56;;;;;;;7.40;3.05;;;27.60;94.30;;;;;;5102743;28;20101;-71
2022/08/14 06:33:24;;;;;;;4.63;3.53;;;27.70;94.00;;;;;;5069326;28;20044;-70
2022/08/14 06:35:52;;;;;;;6.57;2.60;;;27.80;94.00;;;;;;5070638;28;20049;-71
2022/08/14 06:38:22;;;;;;;6.00;2.55;;;27.80;94.00;;;;;;5062247;28;20044;-70
2022/08/14 06:40:50;;;;;;;5.13;2.92;;;27.90;94.00;;;;;;5065080;28;20062;-72
2022/08/14 06:43:19;;;;;;;4.78;2.63;;;28.00;93.90;;;;;;5060670;28;20055;-71
2022/08/14 06:45:47;;;;;;;6.07;2.75;;;28.00;93.80;;;;;;5068338;28;20920;-70
2022/08/14 06:48:17;;;;;;;5.90;2.55;;;28.10;93.50;;;;;;5066667;28;20062;-70
2022/08/14 06:50:46;;;;;;;4.50;3.00;;;28.20;93.50;;;;;;5068252;28;20048;-70
2022/08/14 06:53:15;;;;;;;4.75;2.38;;;28.30;93.40;;;;;;5035236;28;20079;-70
2022/08/14 06:55:44;;;;;;;4.65;2.38;;;28.40;93.10;;;;;;5081334;28;20059;-70
2022/08/14 06:58:16;;;;;;;6.10;2.53;;;28.40;92.80;;;;;;5065138;28;20116;-70
2022/08/14 07:06:20;;;;;;;4.32;2.40;;;28.20;92.80;;;;;;5050810;28;20045;-69
2022/08/14 07:08:47;;;;;;;7.47;3.78;;;28.10;92.90;;;;;;5052787;28;20140;-71
2022/08/14 07:11:15;;;;;;;4.07;2.42;;;28.10;92.80;;;;;;5068449;28;20048;-70
2022/08/14 07:13:43;;;;;;;6.72;2.72;;;28.00;92.80;;;;;;5051908;28;20059;-70
2022/08/14 07:16:11;;;;;;;3.45;2.10;;;27.90;93.10;;;;;;5068812;28;20075;-70
2022/08/14 07:18:40;;;;;;;4.40;1.73;;;27.70;92.60;;;;;;5035575;28;20071;-72
2022/08/14 07:21:08;;;;;;;3.35;1.65;;;27.50;92.40;;;;;;5051613;28;20056;-71
2022/08/14 07:23:36;;;;;;;4.72;2.25;;;27.50;92.50;;;;;;5085708;28;20044;-71
2022/08/14 07:26:05;;;;;;;4.10;2.22;;;27.40;92.60;;;;;;5051811;28;20076;-71
2022/08/14 07:28:39;;;;;;;10.70;2.97;;;27.40;92.70;;;;;;5054389;28;20052;-71
2022/08/14 07:31:09;;;;;;;11.52;3.67;;;27.40;92.50;;;;;;5071478;28;20052;-71
2022/08/14 07:33:39;;;;;;;20.88;3.53;;;27.40;92.70;;;;;;5095867;28;20514;-72
2022/08/14 07:36:10;;;;;;;8.48;2.55;;;27.30;92.60;;;;;;5053225;28;20499;-71
2022/08/14 07:38:42;;;;;;;7.85;3.03;;;27.30;92.70;;;;;;5052462;28;20033;-71
2022/08/14 07:41:11;;;;;;;6.43;2.50;;;27.30;92.70;;;;;;5084657;28;20045;-71
2022/08/14 07:43:40;;;;;;;2.78;1.88;;;27.20;92.40;;;;;;5052607;28;20045;-71
2022/08/14 07:46:08;;;;;;;4.45;2.47;;;27.10;92.10;;;;;;5068094;28;20446;-71
2022/08/14 07:48:40;;;;;;;3.28;1.98;;;27.10;92.30;;;;;;5060951;28;20051;-70
2022/08/14 07:51:08;;;;;;;4.05;2.13;;;27.10;92.60;;;;;;5087928;28;20080;-74
2022/08/14 07:53:36;;;;;;;3.55;2.17;;;27.10;92.20;;;;;;5061268;28;20507;-70
2022/08/14 07:56:04;;;;;;;5.22;2.33;;;27.10;91.90;;;;;;5084729;28;20045;-70
2022/08/14 07:58:32;;;;;;;3.53;2.35;;;27.10;91.70;;;;;;5050251;28;20053;-69
2022/08/14 08:01:01;;;;;;;12.38;2.50;;;27.00;91.90;;;;;;5050561;28;20780;-70
2022/08/14 08:03:33;;;;;;;4.43;2.80;;;27.00;92.40;;;;;;5035345;28;20049;-69
2022/08/14 08:06:02;;;;;;;6.35;2.08;;;27.00;92.30;;;;;;5051044;28;20467;-71
2022/08/14 08:08:30;;;;;;;6.60;2.42;;;27.00;92.10;;;;;;5084397;28;20506;-70
2022/08/14 08:10:59;;;;;;;3.13;2.08;;;27.10;91.80;;;;;;5050601;28;20047;-71
2022/08/14 08:13:27;;;;;;;3.50;2.38;;;27.00;91.80;;;;;;5067263;28;20045;-70
2022/08/14 08:15:56;;;;;;;3.20;2.15;;;27.00;91.70;;;;;;5050702;28;20073;-71
2022/08/14 08:18:25;;;;;;;5.85;2.97;;;27.10;91.90;;;;;;5067283;28;20077;-72
2022/08/14 08:20:54;;;;;;;4.55;3.25;;;27.10;91.80;;;;;;5059004;28;20136;-72
2022/08/14 08:23:24;;;;;;;6.18;2.42;;;27.10;91.70;;;;;;5074160;28;20048;-72
2022/08/14 08:25:52;;;;;;;3.60;2.42;;;27.20;91.60;;;;;;5051628;28;20048;-70
2022/08/14 08:28:23;;;;;;;3.67;2.80;;;27.20;91.60;;;;;;5053544;28;20060;-71
2022/08/14 08:31:04;;;;;;;5.85;2.45;;;27.30;91.70;;;;;;5057055;28;20045;-71
2022/08/14 08:33:38;;;;;;;3.05;2.28;;;27.40;91.40;;;;;;5052895;28;20045;-71
2022/08/14 08:36:10;;;;;;;4.25;2.22;;;27.50;91.20;;;;;;5069441;28;20037;-73
2022/08/14 08:38:38;;;;;;;3.47;2.45;;;27.70;91.40;;;;;;5060248;28;20080;-74
2022/08/14 08:41:09;;;;;;;3.03;2.40;;;27.70;91.40;;;;;;5028856;28;20099;-73
2022/08/14 08:43:38;;;;;;;4.10;2.45;;;27.90;91.00;;;;;;5073394;28;20530;-77
2022/08/14 08:46:08;;;;;;;5.80;2.38;;;27.90;90.70;;;;;;5053199;28;20325;-71
2022/08/14 08:48:46;;;;;;;4.60;2.50;;;27.90;91.00;;;;;;5097704;28;20046;-71
2022/08/14 08:51:27;;;;;;;4.75;2.50;;;27.70;90.40;;;;;;5069794;28;20048;-72
2022/08/14 08:53:57;;;;;;;6.43;2.85;;;27.80;90.00;;;;;;5037245;28;20057;-74
2022/08/14 08:56:39;;;;;;;4.03;2.40;;;28.00;89.50;;;;;;5109819;27;20032;-74
2022/08/14 08:59:27;;;;;;;3.17;2.00;;;28.30;89.30;;;;;;5080809;28;20048;-77
2022/08/14 09:02:06;;;;;;;6.38;2.63;;;28.50;88.90;;;;;;5069483;28;20044;-73
2022/08/14 09:04:49;;;;;;;8.60;3.25;;;28.80;88.70;;;;;;5068091;28;20040;-75
2022/08/14 09:07:17;;;;;;;11.05;2.80;;;28.90;88.20;;;;;;5052635;28;20086;-74
2022/08/14 09:09:51;;;;;;;6.82;2.05;;;28.80;88.30;;;;;;5050717;28;20098;-75
2022/08/14 09:12:21;;;;;;;;;;;28.70;88.70;;;;;;5057338;28;20578;-77
2022/08/14 09:14:52;;;;;;;5.80;2.70;;;28.60;88.90;;;;;;5059767;28;19986;-74
2022/08/14 09:17:20;;;;;;;5.25;2.63;;;28.50;88.90;;;;;;5058627;28;20059;-75
2022/08/14 09:19:48;;;;;;;4.93;2.88;;;28.40;88.70;;;;;;5042201;28;20059;-74
2022/08/14 09:22:17;;;;;;;30.90;22.35;;;28.20;89.50;;;;;;5043885;28;20064;-75
2022/08/14 09:24:48;;;;;;;15.27;12.98;;;28.10;89.40;;;;;;5078270;28;20044;-74
2022/08/14 09:27:17;;;;;;;9.77;7.07;;;28.00;88.90;;;;;;5082454;28;20106;-73
2022/08/14 09:29:46;;;;;;;7.97;4.43;;;28.00;88.90;;;;;;5058852;28;20063;-72
2022/08/14 09:32:27;;;;;;;7.85;3.78;;;28.00;88.80;;;;;;5069569;28;20059;-73
2022/08/14 09:35:02;;;;;;;7.40;5.43;;;28.00;88.80;;;;;;5068480;28;20049;-77
2022/08/14 09:38:12;;;;;;;7.47;5.00;;;28.00;88.70;;;;;;5051653;28;20055;-73
2022/08/14 09:40:53;;;;;;;6.45;3.67;;;27.90;89.30;;;;;;5048493;28;20136;-73
2022/08/14 09:43:44;;;;;;;5.65;3.97;;;27.90;89.90;;;;;;5059039;28;20041;-74
2022/08/14 09:46:12;;;;;;;8.70;5.38;;;27.70;90.10;;;;;;5036088;28;20071;-73
2022/08/14 09:48:39;;;;;;;5.82;3.65;;;27.70;90.20;;;;;;5067856;28;20055;-73
2022/08/14 09:51:19;;;;;;;6.20;3.38;;;27.80;90.10;;;;;;5075031;28;20053;-74
2022/08/14 09:53:59;;;;;;;6.05;3.25;;;28.00;89.80;;;;;;5079347;28;20139;-74
2022/08/14 09:56:28;;;;;;;4.07;3.40;;;28.30;88.70;;;;;;5089571;28;20521;-73
2022/08/14 09:59:13;;;;;;;4.38;3.00;;;28.40;89.00;;;;;;5075888;28;20048;-74
2022/08/14 10:01:44;;;;;;;5.07;2.65;;;28.80;88.40;;;;;;5079774;28;20036;-75
2022/08/14 10:04:22;;;;;;;4.53;3.20;;;29.00;86.60;;;;;;5074461;28;20490;-74
2022/08/14 10:06:51;;;;;;;3.85;2.40;;;29.30;86.20;;;;;;5067443;28;20059;-76
2022/08/14 10:09:23;;;;;;;3.97;2.35;;;29.40;84.80;;;;;;5037815;28;20060;-74
2022/08/14 10:11:57;;;;;;;6.28;2.72;;;29.70;84.70;;;;;;5086984;28;20804;-71
2022/08/14 10:14:31;;;;;;;4.10;3.00;;;29.80;84.30;;;;;;5083280;28;20443;-73
2022/08/14 10:17:04;;;;;;;4.15;2.45;;;29.70;84.50;;;;;;5113417;27;20040;-71
2022/08/14 10:19:34;;;;;;;3.80;2.38;;;29.70;84.00;;;;;;5083453;28;20050;-75
2022/08/14 10:22:09;;;;;;;4.10;2.42;;;29.60;83.40;;;;;;5044616;28;20044;-73
2022/08/14 10:24:39;;;;;;;5.03;2.72;;;29.40;83.70;;;;;;5065403;28;20143;-74
2022/08/14 10:27:22;;;;;;;4.63;2.47;;;29.30;84.00;;;;;;5084986;28;20110;-75
2022/08/14 10:29:54;;;;;;;2.95;2.00;;;28.90;84.40;;;;;;5064418;28;20118;-72
2022/08/14 10:32:22;;;;;;;3.60;2.17;;;28.70;83.80;;;;;;5049812;28;20037;-71
2022/08/14 10:34:50;;;;;;;3.83;2.60;;;28.50;84.00;;;;;;5032693;28;20503;-71
2022/08/14 10:37:18;;;;;;;5.88;2.72;;;28.20;87.90;;;;;;5048870;28;20041;-72
2022/08/14 10:39:59;;;;;;;3.45;2.35;;;28.10;89.10;;;;;;5067610;28;20106;-71
2022/08/14 10:42:38;;;;;;;3.67;2.28;;;28.00;89.60;;;;;;5071402;28;20049;-74
2022/08/14 10:45:28;;;;;;;4.28;2.42;;;27.80;89.70;;;;;;5085314;28;20076;-73
2022/08/14 10:47:56;;;;;;;3.63;2.10;;;27.80;90.00;;;;;;5054915;28;20092;-72
2022/08/14 10:50:33;;;;;;;5.28;2.60;;;27.80;90.10;;;;;;5070898;28;20056;-73
2022/08/14 10:53:04;;;;;;;5.53;2.67;;;27.90;89.90;;;;;;5100147;28;20128;-73
2022/08/14 10:55:38;;;;;;;3.20;2.22;;;28.00;89.80;;;;;;5069569;28;20045;-73
2022/08/14 10:58:10;;;;;;;4.63;2.35;;;28.00;89.20;;;;;;5036275;28;20394;-72
2022/08/14 11:00:39;;;;;;;2.85;2.40;;;28.20;88.30;;;;;;5069256;28;20092;-77
2022/08/14 11:03:16;;;;;;;3.20;2.40;;;28.20;88.70;;;;;;5076959;28;20068;-75
2022/08/14 11:05:46;;;;;;;3.42;2.28;;;28.20;88.80;;;;;;5035209;28;20135;-71
2022/08/14 11:08:18;;;;;;;6.97;3.10;;;28.30;89.10;;;;;;5036031;28;20072;-72
2022/08/14 11:10:56;;;;;;;4.50;2.40;;;28.30;88.90;;;;;;5069447;28;20102;-73
2022/08/14 11:13:26;;;;;;;4.07;2.40;;;28.30;88.90;;;;;;5070361;28;20403;-73
2022/08/14 11:15:55;;;;;;;3.90;2.47;;;28.30;89.40;;;;;;5072155;28;20167;-72
2022/08/14 11:18:23;;;;;;;4.05;2.42;;;28.50;88.80;;;;;;5064414;28;20044;-72
2022/08/14 11:20:55;;;;;;;2.95;2.10;;;28.50;87.30;;;;;;5084436;28;20402;-70
2022/08/14 11:23:37;;;;;;;5.32;2.67;;;28.50;85.80;;;;;;5071051;28;20111;-69
2022/08/14 11:26:06;;;;;;;5.65;2.47;;;28.60;85.50;;;;;;5050067;28;20045;-70
2022/08/14 11:28:39;;;;;;;4.47;2.00;;;28.80;85.60;;;;;;5083051;28;20056;-69
2022/08/14 11:31:09;;;;;;;3.25;2.03;;;28.80;84.90;;;;;;5083687;28;20110;-68
2022/08/14 11:33:38;;;;;;;3.92;2.38;;;28.80;85.00;;;;;;5049561;28;20120;-73
2022/08/14 11:36:10;;;;;;;2.95;1.80;;;28.90;85.30;;;;;;5033093;28;20087;-74
2022/08/14 11:38:45;;;;;;;4.35;1.95;;;29.00;84.60;;;;;;5050570;28;20041;-70
2022/08/14 11:41:15;;;;;;;3.83;1.77;;;29.10;83.80;;;;;;5051731;28;20045;-70
2022/08/14 11:43:45;;;;;;;4.68;2.30;;;29.30;83.60;;;;;;5050638;28;20041;-70
2022/08/14 11:46:16;;;;;;;3.42;2.50;;;29.40;83.40;;;;;;5050231;28;20044;-70
2022/08/14 11:48:52;;;;;;;6.95;1.95;;;29.20;83.50;;;;;;5073446;28;20041;-70
2022/08/14 11:51:25;;;;;;;5.40;2.13;;;29.10;83.60;;;;;;5067002;28;20041;-69
2022/08/14 11:53:56;;;;;;;2.55;1.60;;;29.00;83.70;;;;;;5069695;28;20032;-70
2022/08/14 11:56:24;;;;;;;2.55;1.70;;;28.80;83.10;;;;;;5052136;28;20442;-70
2022/08/14 11:58:53;;;;;;;2.40;1.77;;;28.70;83.00;;;;;;5070286;28;20060;-69
2022/08/14 12:01:27;;;;;;;2.40;1.70;;;28.60;83.00;;;;;;5065996;28;20131;-70
2022/08/14 12:04:06;;;;;;;5.43;2.47;;;28.50;82.30;;;;;;5059685;28;20111;-69
2022/08/14 12:06:54;;;;;;;4.70;1.90;;;28.40;82.20;;;;;;5067236;28;20067;-70
2022/08/14 12:09:34;;;;;;;3.92;2.25;;;28.30;81.80;;;;;;5062200;28;20123;-70
2022/08/14 12:12:16;;;;;;;4.95;2.03;;;28.20;81.20;;;;;;5103563;28;20049;-71
2022/08/14 12:15:05;;;;;;;3.58;2.00;;;28.10;81.70;;;;;;5070182;28;20060;-71
2022/08/14 12:17:50;;;;;;;2.67;1.83;;;28.10;82.00;;;;;;5103840;28;20529;-70
2022/08/14 12:20:28;;;;;;;3.83;1.83;;;28.10;82.70;;;;;;5070870;28;20060;-70
2022/08/14 12:22:59;;;;;;;2.80;2.00;;;28.10;83.10;;;;;;5052158;28;20380;-73
2022/08/14 12:25:27;;;;;;;2.70;1.92;;;28.10;83.50;;;;;;5069058;28;20040;-71
2022/08/14 12:27:58;;;;;;;2.55;1.70;;;27.90;83.60;;;;;;5067967;28;20060;-71
2022/08/14 12:30:41;;;;;;;2.88;1.67;;;27.80;83.40;;;;;;5069505;28;20506;-69
2022/08/14 12:33:24;;;;;;;3.78;2.15;;;27.80;83.80;;;;;;5052948;28;20064;-70
2022/08/14 12:35:54;;;;;;;5.63;2.78;;;27.70;83.10;;;;;;5053256;28;20032;-69
2022/08/14 12:38:34;;;;;;;2.35;1.60;;;27.70;84.10;;;;;;5052000;28;20055;-72
2022/08/14 12:41:08;;;;;;;3.28;2.33;;;27.60;87.10;;;;;;5067586;28;20220;-70
2022/08/14 12:43:55;;;;;;;5.15;1.90;;;27.60;89.30;;;;;;5052330;28;20048;-71
2022/08/14 12:46:29;;;;;;;3.08;2.10;;;27.60;88.70;;;;;;5069750;28;20040;-69
2022/08/14 12:49:07;;;;;;;2.67;2.03;;;27.60;87.80;;;;;;5069194;28;20045;-72
2022/08/14 12:51:35;;;;;;;3.58;2.00;;;27.60;86.90;;;;;;5068761;28;20044;-72
2022/08/14 12:54:18;;;;;;;3.20;2.20;;;27.70;86.90;;;;;;5070624;28;20090;-70
2022/08/14 12:56:46;;;;;;;4.28;2.35;;;27.60;86.30;;;;;;5069102;28;20041;-70
2022/08/14 12:59:15;;;;;;;2.42;1.83;;;27.70;86.40;;;;;;5069116;28;20102;-70
2022/08/14 13:01:44;;;;;;;2.50;1.90;;;27.70;86.00;;;;;;5052715;28;20044;-70
2022/08/14 13:04:15;;;;;;;3.45;2.10;;;27.80;85.50;;;;;;5052544;28;20140;-70
2022/08/14 13:06:46;;;;;;;3.63;2.15;;;27.70;85.40;;;;;;5069097;28;20183;-71
2022/08/14 13:09:15;;;;;;;3.17;1.90;;;27.70;85.50;;;;;;5070037;28;20087;-70
2022/08/14 13:11:48;;;;;;;2.97;2.22;;;27.60;85.80;;;;;;5102615;28;20090;-70
2022/08/14 13:14:24;;;;;;;4.47;2.55;;;27.50;85.80;;;;;;5069076;28;20544;-70
2022/08/14 13:16:55;;;;;;;4.30;2.17;;;27.50;85.80;;;;;;5052310;28;20041;-70
2022/08/14 13:19:24;;;;;;;3.47;2.83;;;27.50;86.10;;;;;;5085645;28;20056;-70
2022/08/14 13:21:56;;;;;;;3.17;2.28;;;27.60;85.60;;;;;;5068589;28;20633;-70
2022/08/14 13:24:24;;;;;;;2.40;1.70;;;27.50;85.60;;;;;;5102581;28;20510;-70
2022/08/14 13:26:57;;;;;;;4.13;2.05;;;27.50;85.80;;;;;;5068710;28;20513;-72
2022/08/14 13:29:27;;;;;;;3.95;2.20;;;27.50;86.10;;;;;;5085022;28;20080;-71